Time;durP1;ratioP1;P1;durP2;ratioP2;P2;SDS_P1;SDS_P2;PMS_P1;PMS_P2;Temp;Humidity;BMP_temperature;BMP_pressure;BME280_temperature;BME280_humidity;BME280_pressure;Samples;Min_cycle;Max_cycle;Signal;HPM_P1;HPM_P2
2021/12/24 00:00:33;;;;;;;42.42;32.85;;;6.40;99.90;;;;;;5070454;28;20030;-66
2021/12/24 00:02:59;;;;;;;40.92;32.05;;;;;;;;;;5069569;28;20033;-67
2021/12/24 00:05:26;;;;;;;45.30;35.35;;;;;;;;;;5070279;28;20075;-66
2021/12/24 00:07:52;;;;;;;44.47;35.33;;;;;;;;;;5073453;28;20035;-66
2021/12/24 00:10:18;;;;;;;46.97;37.20;;;;;;;;;;5073654;28;20028;-67
2021/12/24 00:12:49;;;;;;;50.38;38.42;;;;;;;;;;5068266;28;20035;-65
2021/12/24 00:18:18;;;;;;;52.60;39.30;;;;;;;;;;5045953;28;20040;-66
2021/12/24 00:37:03;;;;;;;53.53;44.38;;;;;;;;;;5095169;28;20047;-67
2021/12/24 00:39:29;;;;;;;58.50;42.47;;;;;;;;;;5094548;28;20102;-66
2021/12/24 00:41:55;;;;;;;50.20;40.50;;;;;;;;;;5076178;28;20031;-67
2021/12/24 00:44:21;;;;;;;50.30;42.75;;;;;;;;;;5076170;28;20016;-67
2021/12/24 00:46:47;;;;;;;42.50;37.28;;;;;;;;;;5094373;28;20483;-67
2021/12/24 00:49:13;;;;;;;46.70;37.92;;;;;;;;;;5094244;28;20078;-67
2021/12/24 00:52:06;;;;;;;52.42;38.25;;;;;;;;;;5075363;28;20038;-67
2021/12/24 00:57:17;;;;;;;39.38;34.58;;;6.40;99.90;;;;;;5094703;28;20093;-67
2021/12/24 00:59:42;;;;;;;45.30;35.80;;;6.80;99.90;;;;;;5075820;28;20032;-66
2021/12/24 01:02:08;;;;;;;44.92;36.83;;;6.90;99.90;;;;;;5093059;28;20074;-68
2021/12/24 01:04:33;;;;;;;47.20;35.90;;;6.90;99.90;;;;;;5071185;28;20661;-67
2021/12/24 01:06:59;;;;;;;43.15;36.88;;;;;;;;;;5075751;28;20024;-67
2021/12/24 01:09:25;;;;;;;43.58;36.42;;;;;;;;;;5093751;28;20024;-66
2021/12/24 01:11:51;;;;;;;57.95;36.50;;;;;;;;;;5093244;28;20047;-67
2021/12/24 01:14:20;;;;;;;47.33;36.50;;;;;;;;;;5078784;23;20182;-71
2021/12/24 01:16:57;;;;;;;42.17;32.85;;;;;;;;;;5054082;28;20078;-72
2021/12/24 01:19:25;;;;;;;45.47;37.95;;;;;;;;;;5053952;28;20029;-72
2021/12/24 01:24:23;;;;;;;41.38;36.97;;;;;;;;;;5086597;28;20469;-73
2021/12/24 01:27:04;;;;;;;47.97;37.47;;;;;;;;;;5092133;28;20506;-72
2021/12/24 01:37:53;;;;;;;49.72;37.63;;;;;;;;;;5092417;28;20120;-71
2021/12/24 01:42:48;;;;;;;45.85;39.78;;;;;;;;;;5091155;28;20563;-72
2021/12/24 01:45:17;;;;;;;47.03;37.60;;;;;;;;;;5091655;28;20426;-72
2021/12/24 01:47:43;;;;;;;46.25;37.20;;;;;;;;;;5073579;28;20024;-72
2021/12/24 01:50:09;;;;;;;50.45;39.83;;;;;;;;;;5073568;28;20554;-72
2021/12/24 01:52:37;;;;;;;43.45;36.70;;;;;;;;;;5072648;28;20076;-72
2021/12/24 01:55:03;;;;;;;43.88;38.17;;;;;;;;;;5073474;28;20020;-72
2021/12/24 01:57:32;;;;;;;46.35;38.78;;;;;;;;;;5091692;28;20392;-71
2021/12/24 01:59:58;;;;;;;41.05;34.78;;;;;;;;;;5091533;28;20028;-71
2021/12/24 02:02:24;;;;;;;48.85;38.30;;;;;;;;;;5072654;28;20526;-70
2021/12/24 02:04:49;;;;;;;43.25;37.97;;;;;;;;;;5073304;28;20020;-71
2021/12/24 02:07:15;;;;;;;49.33;38.03;;;;;;;;;;5091383;28;20032;-71
2021/12/24 02:09:41;;;;;;;47.10;39.30;;;;;;;;;;5073306;28;20025;-72
2021/12/24 02:12:09;;;;;;;48.13;39.33;;;;;;;;;;5072700;28;20024;-72
2021/12/24 02:14:38;;;;;;;43.10;36.30;;;;;;;;;;5072967;28;20036;-71
2021/12/24 02:28:25;;;;;;;40.33;36.00;;;;;;;;;;5091720;28;20039;-71
2021/12/24 02:30:52;;;;;;;45.33;38.67;;;;;;;;;;5073356;28;20024;-72
2021/12/24 02:33:18;;;;;;;46.45;38.33;;;;;;;;;;5090913;28;20020;-70
2021/12/24 02:35:44;;;;;;;42.38;37.78;;;;;;;;;;5091476;28;20103;-70
2021/12/24 02:38:10;;;;;;;46.25;37.45;;;;;;;;;;5073231;28;20035;-71
2021/12/24 02:40:37;;;;;;;43.67;39.00;;;;;;;;;;5091272;28;20035;-71
2021/12/24 02:43:03;;;;;;;47.05;39.22;;;;;;;;;;5094421;28;20049;-72
2021/12/24 02:45:31;;;;;;;44.58;38.13;;;;;;;;;;5095229;28;20110;-72
2021/12/24 02:56:17;;;;;;;48.00;39.13;;;;;;;;;;5088349;28;20418;-70
2021/12/24 02:58:44;;;;;;;43.80;36.97;;;;;;;;;;5076490;28;20064;-71
2021/12/24 03:01:16;;;;;;;43.72;39.03;;;;;;;;;;5076471;28;20559;-71
2021/12/24 03:03:47;;;;;;;42.28;36.50;;;;;;;;;;5094168;28;20020;-70
2021/12/24 03:06:13;;;;;;;41.90;36.55;;;;;;;;;;5076757;28;20046;-72
2021/12/24 03:08:39;;;;;;;45.22;39.17;;;;;;;;;;5076716;28;20024;-73
2021/12/24 03:11:05;;;;;;;45.35;40.33;;;;;;;;;;5076405;28;20506;-72
2021/12/24 03:13:32;;;;;;;37.97;33.15;;;;;;;;;;5075929;28;20025;-72
2021/12/24 03:15:59;;;;;;;42.00;37.38;;;;;;;;;;5094582;28;20028;-72
2021/12/24 03:18:29;;;;;;;47.60;38.20;;;;;;;;;;5094482;28;20434;-72
2021/12/24 03:21:07;;;;;;;43.97;38.10;;;;;;;;;;5076159;28;20093;-71
2021/12/24 03:23:43;;;;;;;53.05;37.95;;;;;;;;;;5075590;28;20054;-71
2021/12/24 03:26:12;;;;;;;46.53;35.53;;;;;;;;;;5094261;28;20024;-70
2021/12/24 03:28:38;;;;;;;46.08;35.35;;;;;;;;;;5094175;28;20099;-71
2021/12/24 03:31:04;;;;;;;45.72;35.10;;;;;;;;;;5076024;28;20102;-71
2021/12/24 03:33:31;;;;;;;46.28;36.35;;;;;;;;;;5093525;28;20020;-71
2021/12/24 03:35:57;;;;;;;48.50;36.65;;;;;;;;;;5076036;28;20055;-71
2021/12/24 03:38:23;;;;;;;48.80;36.03;;;;;;;;;;5076017;28;20088;-71
2021/12/24 03:40:49;;;;;;;46.70;36.95;;;;;;;;;;5075999;28;20024;-72
2021/12/24 03:43:15;;;;;;;43.95;33.38;;;;;;;;;;5075205;28;20027;-71
2021/12/24 03:48:25;;;;;;;49.65;36.65;;;;;;;;;;5094174;28;20028;-72
2021/12/24 03:56:22;;;;;;;44.17;35.63;;;;;;;;;;5093961;28;20039;-71
2021/12/24 03:58:48;;;;;;;48.97;38.05;;;;;;;;;;5075496;28;20032;-71
2021/12/24 04:01:14;;;;;;;50.13;36.38;;;6.90;99.90;;;;;;5093637;28;20028;-72
2021/12/24 04:03:40;;;;;;;50.25;37.83;;;8.50;99.90;;;;;;5074758;28;20093;-71
2021/12/24 04:06:05;;;;;;;44.53;35.78;;;8.50;99.90;;;;;;5075526;28;20036;-71
2021/12/24 04:08:31;;;;;;;47.90;36.08;;;8.50;99.90;;;;;;5075359;28;20035;-71
2021/12/24 04:10:56;;;;;;;43.47;33.53;;;8.50;99.90;;;;;;5075124;28;20028;-70
2021/12/24 04:13:22;;;;;;;43.53;34.45;;;8.50;99.90;;;;;;5092620;28;20043;-71
2021/12/24 04:15:48;;;;;;;47.55;33.67;;;8.50;99.90;;;;;;5075186;28;20020;-70
2021/12/24 04:18:19;;;;;;;48.17;37.03;;;8.50;99.90;;;;;;5093366;28;20096;-70
2021/12/24 04:26:13;;;;;;;50.78;38.42;;;8.50;99.90;;;;;;5093323;28;20047;-70
2021/12/24 04:28:38;;;;;;;45.50;35.97;;;8.50;99.90;;;;;;5074720;28;20460;-71
2021/12/24 04:31:04;;;;;;;47.72;35.55;;;8.50;99.90;;;;;;5075032;28;20034;-70
2021/12/24 04:33:35;;;;;;;46.92;36.65;;;8.50;99.90;;;;;;5091856;28;20481;-71
2021/12/24 04:52:05;;;;;;;45.85;40.53;;;;;;;;;;5092515;28;20028;-72
2021/12/24 05:03:08;;;;;;;42.95;35.95;;;;;;;;;;5009545;28;20064;-72
2021/12/24 05:05:51;;;;;;;49.90;41.20;;;;;;;;;;5043301;28;20044;-72
2021/12/24 05:08:26;;;;;;;45.97;38.15;;;;;;;;;;5074159;28;20032;-72
2021/12/24 05:10:53;;;;;;;54.53;43.40;;;8.50;99.90;;;;;;5074148;28;20027;-72
2021/12/24 05:13:21;;;;;;;61.22;44.70;;;8.60;99.90;;;;;;5091769;28;20472;-71
2021/12/24 05:15:51;;;;;;;63.80;47.03;;;8.70;99.90;;;;;;5092341;28;20039;-69
2021/12/24 05:23:38;;;;;;;62.60;47.78;;;8.70;99.90;;;;;;5091488;28;20081;-72
2021/12/24 05:26:05;;;;;;;56.58;43.53;;;8.70;99.90;;;;;;5091937;28;20392;-72
2021/12/24 05:28:31;;;;;;;68.93;48.08;;;8.70;99.90;;;;;;5073771;28;20129;-72
2021/12/24 05:30:56;;;;;;;71.20;48.88;;;8.70;99.90;;;;;;5073716;28;20016;-72
2021/12/24 05:33:22;;;;;;;76.63;51.85;;;8.70;99.90;;;;;;5091008;28;20105;-72
2021/12/24 05:35:48;;;;;;;76.45;50.85;;;8.70;99.90;;;;;;5073881;28;20035;-72
2021/12/24 05:38:15;;;;;;;64.22;46.58;;;8.70;99.90;;;;;;5073784;28;20024;-70
2021/12/24 05:40:42;;;;;;;72.05;49.42;;;8.70;99.90;;;;;;5073715;28;20024;-72
2021/12/24 05:43:07;;;;;;;68.38;48.65;;;8.70;99.90;;;;;;5091174;28;20022;-72
2021/12/24 05:45:34;;;;;;;69.07;46.45;;;8.70;99.90;;;;;;5073594;28;20115;-72
2021/12/24 05:47:59;;;;;;;69.57;44.25;;;8.80;99.90;;;;;;5073626;28;20052;-72
2021/12/24 05:50:25;;;;;;;66.75;43.60;;;8.70;99.90;;;;;;5091552;28;20063;-72
2021/12/24 05:52:51;;;;;;;63.33;46.28;;;8.80;99.90;;;;;;5072902;28;20020;-72
2021/12/24 05:55:16;;;;;;;73.53;46.70;;;8.70;99.90;;;;;;5073532;28;20430;-71
2021/12/24 05:57:42;;;;;;;64.78;45.10;;;8.80;99.90;;;;;;5073507;28;20032;-72
2021/12/24 06:00:09;;;;;;;70.97;44.90;;;8.80;99.90;;;;;;5073259;28;20031;-72
2021/12/24 06:02:35;;;;;;;69.65;46.90;;;8.80;99.90;;;;;;5090696;28;20119;-72
2021/12/24 06:05:01;;;;;;;64.45;43.28;;;8.80;99.90;;;;;;5091522;28;20055;-72
2021/12/24 06:07:27;;;;;;;58.80;41.15;;;8.80;99.90;;;;;;5073362;28;20575;-71
2021/12/24 06:09:55;;;;;;;59.85;42.00;;;8.80;99.90;;;;;;5073116;28;20111;-72
2021/12/24 06:12:21;;;;;;;60.50;41.92;;;8.80;99.90;;;;;;5069887;28;20044;-72
2021/12/24 06:14:53;;;;;;;68.45;43.10;;;8.80;99.90;;;;;;5064445;28;20514;-71
2021/12/24 06:17:19;;;;;;;57.50;40.70;;;8.80;99.90;;;;;;5062735;28;20021;-72
2021/12/24 06:19:44;;;;;;;62.88;42.90;;;8.80;99.90;;;;;;5055356;28;20025;-72
2021/12/24 06:22:11;;;;;;;61.08;43.65;;;8.80;99.90;;;;;;5074315;28;20016;-73
2021/12/24 06:24:37;;;;;;;57.47;40.40;;;8.80;99.90;;;;;;5095145;28;20056;-72
2021/12/24 06:27:03;;;;;;;58.70;41.33;;;8.80;99.90;;;;;;5076956;28;20445;-72
2021/12/24 06:29:29;;;;;;;58.80;40.42;;;8.80;99.90;;;;;;5068784;28;20104;-72
2021/12/24 06:31:55;;;;;;;59.10;41.75;;;8.80;99.90;;;;;;5056216;28;20051;-72
2021/12/24 06:34:21;;;;;;;57.35;40.75;;;8.80;99.90;;;;;;5074836;28;20020;-70
2021/12/24 06:36:48;;;;;;;55.80;40.72;;;8.80;99.90;;;;;;5056719;28;20042;-71
2021/12/24 06:39:15;;;;;;;58.35;38.33;;;8.80;99.90;;;;;;5056547;28;20025;-72
2021/12/24 06:41:42;;;;;;;54.70;38.15;;;8.80;99.90;;;;;;5074070;28;20084;-72
2021/12/24 06:44:11;;;;;;;57.33;43.15;;;8.80;99.90;;;;;;5074165;28;20100;-72
2021/12/24 06:46:37;;;;;;;;;;;8.80;99.90;;;;;;5065078;28;20054;-72
2021/12/24 06:49:03;;;;;;;57.05;37.53;;;8.80;99.90;;;;;;5076373;28;19987;-73
2021/12/24 06:51:28;;;;;;;52.92;37.70;;;8.80;99.90;;;;;;5076253;28;20020;-71
2021/12/24 06:53:54;;;;;;;72.68;37.67;;;8.80;99.90;;;;;;5093945;28;20026;-72
2021/12/24 06:56:21;;;;;;;50.47;33.65;;;8.80;99.90;;;;;;5075996;28;20464;-72
2021/12/24 06:58:46;;;;;;;51.40;37.72;;;8.90;99.90;;;;;;5094515;28;20043;-72
2021/12/24 07:01:12;;;;;;;48.95;31.98;;;8.80;99.90;;;;;;5076258;28;20023;-72
2021/12/24 07:03:38;;;;;;;49.83;34.70;;;8.80;99.90;;;;;;5075508;28;20084;-72
2021/12/24 07:06:05;;;;;;;88.63;35.50;;;8.90;99.90;;;;;;5094198;28;20071;-72
2021/12/24 07:08:31;;;;;;;50.47;34.00;;;8.90;99.90;;;;;;5094121;28;20106;-72
2021/12/24 07:10:57;;;;;;;49.97;32.42;;;8.90;99.90;;;;;;5094154;28;20020;-72
2021/12/24 07:13:22;;;;;;;60.17;33.47;;;8.90;99.90;;;;;;5096679;22;20098;-68
2021/12/24 07:15:48;;;;;;;53.72;32.25;;;8.90;99.90;;;;;;5073870;28;20032;-68
2021/12/24 07:18:14;;;;;;;45.70;31.13;;;8.90;99.90;;;;;;5074958;28;20032;-68
2021/12/24 07:20:40;;;;;;;51.55;29.90;;;8.90;99.90;;;;;;5057422;28;20033;-68
2021/12/24 07:23:06;;;;;;;54.95;30.50;;;8.90;99.90;;;;;;5056746;28;20021;-68
2021/12/24 07:25:32;;;;;;;48.47;28.88;;;8.90;99.90;;;;;;5070330;28;20119;-67
2021/12/24 07:27:57;;;;;;;44.38;26.35;;;8.90;99.90;;;;;;5036829;28;20108;-68
2021/12/24 07:30:23;;;;;;;43.67;25.08;;;8.90;99.90;;;;;;5037336;28;20017;-68
2021/12/24 07:32:49;;;;;;;56.70;28.67;;;8.90;99.90;;;;;;5054328;28;20017;-68
2021/12/24 07:35:15;;;;;;;45.72;25.00;;;8.90;99.90;;;;;;5037505;28;20137;-68
2021/12/24 07:37:41;;;;;;;64.32;26.67;;;8.90;99.90;;;;;;5070554;28;20048;-68
2021/12/24 07:40:08;;;;;;;46.20;27.45;;;8.90;99.90;;;;;;5055062;28;20021;-68
2021/12/24 07:42:34;;;;;;;44.65;26.30;;;8.90;99.90;;;;;;5036233;28;20370;-68
2021/12/24 07:45:00;;;;;;;45.95;25.58;;;8.90;99.90;;;;;;5054587;28;20028;-68
2021/12/24 07:47:33;;;;;;;41.38;24.10;;;9.00;99.90;;;;;;5054671;28;20021;-68
2021/12/24 07:50:04;;;;;;;40.22;22.42;;;9.00;99.90;;;;;;5036439;28;20021;-68
2021/12/24 07:52:31;;;;;;;36.83;23.23;;;8.90;99.90;;;;;;5054262;28;20025;-68
2021/12/24 07:54:57;;;;;;;40.80;25.20;;;9.00;99.90;;;;;;5054224;28;20029;-68
2021/12/24 07:57:24;;;;;;;42.33;23.83;;;8.90;99.90;;;;;;5036681;28;20032;-68
2021/12/24 07:59:50;;;;;;;42.63;21.88;;;8.90;99.90;;;;;;5054832;28;20040;-68
2021/12/24 08:02:21;;;;;;;41.83;23.48;;;8.90;99.90;;;;;;5036073;28;20025;-67
2021/12/24 08:04:47;;;;;;;40.90;22.73;;;8.90;99.90;;;;;;5054573;28;20017;-68
2021/12/24 08:07:15;;;;;;;41.20;23.08;;;8.90;99.90;;;;;;5069919;28;20070;-68
2021/12/24 08:09:42;;;;;;;36.35;22.15;;;8.90;99.90;;;;;;5036489;28;20025;-68
2021/12/24 08:12:10;;;;;;;43.10;21.63;;;8.90;99.90;;;;;;5035298;28;20075;-67
2021/12/24 08:14:36;;;;;;;39.42;22.80;;;8.90;99.90;;;;;;5036275;28;20056;-68
2021/12/24 08:17:03;;;;;;;40.28;21.98;;;8.90;99.90;;;;;;5036794;28;20025;-68
2021/12/24 08:19:29;;;;;;;37.10;21.00;;;8.90;99.90;;;;;;5036336;28;20036;-68
2021/12/24 08:21:56;;;;;;;43.35;19.98;;;8.90;99.90;;;;;;5035728;28;20037;-68
2021/12/24 08:24:21;;;;;;;31.70;18.33;;;8.90;99.90;;;;;;5036238;28;20031;-67
2021/12/24 08:26:47;;;;;;;37.28;19.45;;;8.90;99.90;;;;;;5036418;28;20093;-68
2021/12/24 08:29:13;;;;;;;32.17;17.85;;;8.90;99.90;;;;;;5036303;28;20032;-68
2021/12/24 08:31:39;;;;;;;38.60;20.13;;;8.90;99.90;;;;;;5053542;28;20040;-69
2021/12/24 08:34:05;;;;;;;41.60;19.25;;;8.90;99.90;;;;;;5035382;28;20392;-67
2021/12/24 08:36:32;;;;;;;34.92;16.25;;;8.90;99.90;;;;;;5053913;28;20017;-66
2021/12/24 08:38:57;;;;;;;33.28;15.70;;;8.90;99.90;;;;;;5034830;28;20116;-66
2021/12/24 08:41:24;;;;;;;35.70;16.58;;;8.90;99.90;;;;;;5035502;28;20045;-64
2021/12/24 08:43:51;;;;;;;33.50;16.75;;;8.90;99.90;;;;;;5052518;28;20481;-65
2021/12/24 08:46:16;;;;;;;28.33;12.55;;;8.90;99.90;;;;;;5035344;28;20115;-64
2021/12/24 08:48:42;;;;;;;30.73;15.40;;;8.90;99.90;;;;;;5053722;28;20556;-71
2021/12/24 08:51:08;;;;;;;29.73;13.85;;;8.90;99.90;;;;;;5054656;28;20021;-78
2021/12/24 08:53:33;;;;;;;30.70;15.40;;;8.90;99.90;;;;;;5054511;28;20032;-78
2021/12/24 08:55:59;;;;;;;29.15;14.70;;;9.00;99.90;;;;;;5036766;28;20029;-77
2021/12/24 08:58:25;;;;;;;26.10;13.98;;;8.90;99.90;;;;;;5036171;28;20028;-70
2021/12/24 09:00:53;;;;;;;30.65;15.98;;;8.90;99.90;;;;;;5036014;28;20029;-71
2021/12/24 09:03:19;;;;;;;35.17;16.02;;;8.90;99.90;;;;;;5035317;28;20033;-77
2021/12/24 09:05:45;;;;;;;33.13;15.70;;;8.90;99.90;;;;;;5036219;28;20031;-74
2021/12/24 09:08:11;;;;;;;26.88;14.38;;;8.90;99.90;;;;;;5053750;28;20088;-74
2021/12/24 09:10:36;;;;;;;34.42;15.88;;;8.90;99.90;;;;;;5035866;28;20028;-75
2021/12/24 09:13:02;;;;;;;34.75;14.35;;;8.80;99.90;;;;;;5035249;28;20021;-76
2021/12/24 09:15:30;;;;;;;30.10;13.98;;;8.80;99.90;;;;;;5035780;28;20033;-75
2021/12/24 09:18:01;;;;;;;28.30;13.75;;;8.70;99.90;;;;;;5035568;28;20021;-75
2021/12/24 09:20:36;;;;;;;37.53;15.27;;;8.70;99.90;;;;;;5036049;28;20028;-76
2021/12/24 09:23:03;;;;;;;27.30;13.35;;;8.70;99.90;;;;;;5035020;28;20035;-76
2021/12/24 09:25:29;;;;;;;31.15;14.15;;;8.60;99.90;;;;;;5035326;28;20481;-76
2021/12/24 09:27:56;;;;;;;34.33;15.80;;;8.60;99.90;;;;;;5034748;28;20029;-66
2021/12/24 09:30:23;;;;;;;37.28;15.10;;;8.60;99.90;;;;;;5034715;28;20107;-66
2021/12/24 09:32:49;;;;;;;30.90;13.73;;;8.60;99.90;;;;;;5034178;28;20032;-66
2021/12/24 09:35:15;;;;;;;34.70;16.77;;;8.60;99.90;;;;;;5034375;28;20029;-65
2021/12/24 09:37:41;;;;;;;34.05;16.88;;;8.50;99.90;;;;;;5034945;28;20029;-67
2021/12/24 09:40:09;;;;;;;33.40;16.13;;;8.50;99.90;;;;;;5051713;28;20021;-65
2021/12/24 09:42:35;;;;;;;35.25;16.13;;;8.50;99.90;;;;;;5033577;28;20029;-65
2021/12/24 09:45:03;;;;;;;39.10;15.25;;;8.60;99.90;;;;;;5034322;28;20132;-66
2021/12/24 09:47:29;;;;;;;32.57;16.80;;;8.60;99.90;;;;;;5034265;28;20028;-66
2021/12/24 09:49:55;;;;;;;35.45;16.48;;;8.60;99.90;;;;;;5034764;28;20563;-66
2021/12/24 09:52:21;;;;;;;36.45;14.77;;;8.60;99.90;;;;;;5033796;28;20056;-66
2021/12/24 09:54:48;;;;;;;34.58;15.90;;;8.60;99.90;;;;;;5052199;28;20488;-65
2021/12/24 09:57:14;;;;;;;34.15;15.32;;;8.60;99.90;;;;;;5034780;28;20029;-66
2021/12/24 09:59:40;;;;;;;34.03;14.57;;;8.60;99.90;;;;;;5034273;28;20108;-66
2021/12/24 10:02:08;;;;;;;31.77;14.82;;;8.60;99.90;;;;;;5033674;28;20056;-67
2021/12/24 10:04:36;;;;;;;34.13;14.93;;;8.60;99.90;;;;;;5052417;28;20021;-66
2021/12/24 10:07:08;;;;;;;32.25;13.07;;;8.60;99.90;;;;;;5034314;28;20039;-66
2021/12/24 10:09:42;;;;;;;32.78;14.75;;;8.60;99.90;;;;;;5034400;28;20548;-66
2021/12/24 10:12:17;;;;;;;31.30;15.25;;;8.60;99.90;;;;;;5033727;28;20481;-66
2021/12/24 10:15:01;;;;;;;29.92;12.18;;;8.60;99.90;;;;;;5051942;28;20025;-66
2021/12/24 10:17:32;;;;;;;28.40;12.65;;;8.60;99.90;;;;;;5052032;28;20017;-65
2021/12/24 10:20:00;;;;;;;29.55;12.95;;;8.70;99.90;;;;;;5034177;28;20057;-65
2021/12/24 10:22:26;;;;;;;28.98;13.38;;;8.70;99.90;;;;;;5033644;28;20370;-65
2021/12/24 10:25:05;;;;;;;27.63;11.68;;;8.70;99.90;;;;;;5052029;28;20025;-65
2021/12/24 10:27:33;;;;;;;29.73;12.27;;;8.70;99.90;;;;;;5051954;28;20128;-66
2021/12/24 10:29:59;;;;;;;29.15;12.18;;;8.70;99.90;;;;;;5034175;28;20100;-66
2021/12/24 10:32:26;;;;;;;29.50;11.23;;;8.80;99.90;;;;;;5033460;28;20098;-66
2021/12/24 10:34:52;;;;;;;32.00;13.15;;;8.80;99.90;;;;;;5034022;28;20387;-66
2021/12/24 10:37:23;;;;;;;28.38;12.07;;;8.80;99.90;;;;;;5052160;28;20028;-66
2021/12/24 10:40:01;;;;;;;29.63;13.13;;;8.80;99.90;;;;;;5033808;28;20025;-66
2021/12/24 10:42:37;;;;;;;30.10;12.60;;;8.80;99.90;;;;;;5051047;28;20025;-67
2021/12/24 10:45:17;;;;;;;30.95;13.73;;;8.80;99.90;;;;;;5033993;28;20040;-66
2021/12/24 10:47:43;;;;;;;34.83;15.50;;;8.80;99.90;;;;;;5034457;28;20036;-66
2021/12/24 10:50:28;;;;;;;;;;;;;;;;;;;;;
2021/12/24 10:55:18;;;;;;;31.92;13.57;;;8.70;99.90;;;;;;5051509;28;20021;-66
2021/12/24 10:57:46;;;;;;;28.08;13.40;;;8.70;99.90;;;;;;5034480;28;20554;-67
2021/12/24 11:00:21;;;;;;;34.60;14.98;;;8.70;99.90;;;;;;5033554;28;20031;-67
2021/12/24 11:02:53;;;;;;;39.65;16.30;;;8.70;99.90;;;;;;5052402;28;20019;-66
2021/12/24 11:05:25;;;;;;;28.63;12.80;;;8.80;99.90;;;;;;5055331;28;20029;-67
2021/12/24 11:07:51;;;;;;;33.83;15.35;;;8.80;99.90;;;;;;5037148;28;20045;-65
2021/12/24 11:10:22;;;;;;;38.95;15.07;;;8.80;99.90;;;;;;5037318;28;20032;-65
2021/12/24 11:12:50;;;;;;;32.42;14.63;;;8.80;99.90;;;;;;5034576;28;20103;-67
2021/12/24 11:15:45;;;;;;;30.75;14.27;;;8.70;99.90;;;;;;5037078;28;20032;-66
2021/12/24 11:18:24;;;;;;;28.42;13.18;;;8.70;99.90;;;;;;5032923;28;20037;-67
2021/12/24 11:20:57;;;;;;;41.20;13.48;;;8.80;99.90;;;;;;5026427;28;20021;-66
2021/12/24 11:23:25;;;;;;;33.38;15.13;;;8.70;99.90;;;;;;5036139;28;20032;-66
2021/12/24 11:25:54;;;;;;;32.00;14.43;;;8.70;99.90;;;;;;5036810;28;20029;-66
2021/12/24 11:28:23;;;;;;;31.75;14.43;;;8.60;99.90;;;;;;5037094;28;20036;-65
2021/12/24 11:30:52;;;;;;;32.65;14.25;;;8.60;99.90;;;;;;5036586;28;20029;-65
2021/12/24 11:33:24;;;;;;;39.42;16.55;;;8.50;99.90;;;;;;5036363;28;20017;-66
2021/12/24 11:35:51;;;;;;;39.00;17.17;;;8.40;99.90;;;;;;5054652;28;20025;-66
2021/12/24 11:38:29;;;;;;;40.33;19.33;;;8.40;99.90;;;;;;5052245;28;20032;-65
2021/12/24 11:40:57;;;;;;;37.10;17.17;;;8.40;99.90;;;;;;5053224;28;20048;-67
2021/12/24 11:43:28;;;;;;;33.20;17.75;;;8.40;99.90;;;;;;5053972;28;20032;-67
2021/12/24 11:45:58;;;;;;;38.45;18.70;;;8.30;99.90;;;;;;5036468;28;20037;-66
2021/12/24 11:48:27;;;;;;;31.48;16.90;;;8.30;99.90;;;;;;5053762;28;20104;-66
2021/12/24 11:50:53;;;;;;;32.90;17.55;;;8.30;99.90;;;;;;5036409;28;20021;-66
2021/12/24 11:53:19;;;;;;;32.75;18.00;;;8.30;99.90;;;;;;5053255;28;20028;-67
2021/12/24 11:55:50;;;;;;;44.78;21.02;;;8.30;99.90;;;;;;5045440;28;20028;-66
2021/12/24 11:58:20;;;;;;;32.88;21.75;;;8.20;99.90;;;;;;5037983;28;20067;-66
2021/12/24 12:00:48;;;;;;;34.20;20.13;;;8.30;99.90;;;;;;5037003;28;20476;-67
2021/12/24 12:03:41;;;;;;;35.42;20.70;;;8.30;99.90;;;;;;5035391;28;20400;-66
2021/12/24 12:06:33;;;;;;;34.05;19.88;;;8.30;99.90;;;;;;5053142;28;20171;-67
2021/12/24 12:09:00;;;;;;;36.05;22.17;;;8.30;99.90;;;;;;5052948;28;20027;-68
2021/12/24 12:11:31;;;;;;;32.37;21.10;;;8.30;99.90;;;;;;5054144;28;20126;-67
2021/12/24 12:14:18;;;;;;;48.30;27.58;;;8.30;99.90;;;;;;5048868;28;20040;-68
2021/12/24 12:16:57;;;;;;;32.13;23.40;;;8.30;99.90;;;;;;5021827;28;20507;-69
2021/12/24 12:19:31;;;;;;;32.15;21.92;;;8.20;99.90;;;;;;5048372;28;20033;-67
2021/12/24 12:24:57;;;;;;;34.33;23.13;;;8.30;99.90;;;;;;5054341;28;20064;-68
2021/12/24 12:27:31;;;;;;;33.00;22.20;;;8.30;99.90;;;;;;5054713;28;20477;-68
2021/12/24 12:29:57;;;;;;;27.75;20.38;;;8.30;99.90;;;;;;4686756;28;10000232;-66
2021/12/24 12:32:25;;;;;;;34.80;21.65;;;8.30;99.90;;;;;;5057087;28;20044;-68
2021/12/24 12:34:59;;;;;;;26.92;20.42;;;8.30;99.90;;;;;;5051558;28;20013;-69
2021/12/24 12:37:48;;;;;;;30.40;21.70;;;8.30;99.90;;;;;;5051231;28;20055;-66
2021/12/24 12:40:17;;;;;;;27.58;20.48;;;8.40;99.90;;;;;;5032589;28;20489;-67
2021/12/24 12:42:48;;;;;;;29.65;20.73;;;8.40;99.90;;;;;;5048290;28;20112;-67
2021/12/24 12:45:15;;;;;;;27.63;20.33;;;8.40;99.90;;;;;;5049561;28;20071;-67
2021/12/24 12:47:55;;;;;;;30.52;24.23;;;8.40;99.90;;;;;;5032194;28;20085;-67
2021/12/24 12:50:22;;;;;;;31.40;24.40;;;8.50;99.90;;;;;;5051058;28;20052;-67
2021/12/24 12:52:58;;;;;;;28.40;23.38;;;8.50;99.90;;;;;;5050431;28;20029;-67
2021/12/24 12:55:33;;;;;;;30.90;26.58;;;8.40;99.90;;;;;;5033519;28;20439;-67
2021/12/24 12:58:17;;;;;;;30.83;23.92;;;8.40;99.90;;;;;;5051000;28;20105;-68
2021/12/24 13:01:00;;;;;;;29.50;25.45;;;8.40;99.90;;;;;;5033148;28;20119;-68
2021/12/24 13:03:26;;;;;;;36.60;26.90;;;8.40;99.90;;;;;;5049411;28;20373;-67
2021/12/24 13:05:57;;;;;;;31.67;25.80;;;8.40;99.90;;;;;;5032416;28;20032;-68
2021/12/24 13:08:29;;;;;;;31.77;26.00;;;8.50;99.90;;;;;;5033618;28;20087;-68
2021/12/24 13:10:59;;;;;;;34.95;25.88;;;8.40;99.90;;;;;;5033503;28;20496;-67
2021/12/24 13:13:26;;;;;;;35.47;24.80;;;8.40;99.90;;;;;;5032241;28;20037;-68
2021/12/24 13:15:52;;;;;;;34.08;24.45;;;8.40;99.90;;;;;;5093987;22;20048;-70
2021/12/24 13:18:29;;;;;;;31.42;25.27;;;8.40;99.90;;;;;;5088725;28;20031;-69
2021/12/24 13:23:29;;;;;;;32.58;23.42;;;8.50;99.90;;;;;;5088810;28;20028;-69
2021/12/24 13:25:54;;;;;;;31.35;23.20;;;8.50;99.90;;;;;;5069715;28;20027;-71
2021/12/24 13:28:20;;;;;;;33.60;22.30;;;8.60;99.90;;;;;;5071107;28;20482;-69
2021/12/24 13:30:46;;;;;;;30.85;23.33;;;8.50;99.90;;;;;;5071115;28;20031;-71
2021/12/24 13:33:11;;;;;;;30.33;21.90;;;8.60;99.90;;;;;;5089775;28;20060;-69
2021/12/24 13:35:42;;;;;;;33.85;22.25;;;8.60;99.90;;;;;;5071618;28;20380;-69
2021/12/24 13:38:26;;;;;;;32.78;23.95;;;8.60;99.90;;;;;;5091796;28;20016;-70
2021/12/24 13:40:53;;;;;;;30.95;22.88;;;8.60;99.90;;;;;;5073556;28;20032;-75
2021/12/24 13:43:19;;;;;;;32.47;22.98;;;8.60;99.90;;;;;;5073159;28;20081;-69
2021/12/24 13:45:49;;;;;;;29.88;24.38;;;8.60;99.90;;;;;;5092085;28;20107;-77
2021/12/24 13:48:26;;;;;;;31.65;24.70;;;8.60;99.90;;;;;;5092065;28;20020;-74
2021/12/24 13:56:36;;;;;;;35.95;27.88;;;8.50;99.90;;;;;;5091948;28;20084;-74
2021/12/24 13:59:03;;;;;;;35.47;26.27;;;8.50;99.90;;;;;;5073727;28;20031;-75
2021/12/24 14:01:31;;;;;;;41.35;28.55;;;8.50;99.90;;;;;;5073537;28;20456;-73
2021/12/24 14:03:59;;;;;;;32.17;26.25;;;8.50;99.90;;;;;;5091374;28;20063;-75
2021/12/24 14:06:36;;;;;;;32.15;24.83;;;8.40;99.90;;;;;;5090799;28;20032;-74
2021/12/24 14:09:15;;;;;;;30.83;25.45;;;8.40;99.90;;;;;;5073615;28;20704;-74
2021/12/24 14:11:44;;;;;;;;;;;8.40;99.90;;;;;;5091498;28;20066;-74
2021/12/24 14:14:19;;;;;;;38.60;24.15;;;8.40;99.90;;;;;;5073072;28;20256;-73
2021/12/24 14:19:27;;;;;;;28.00;24.75;;;8.40;99.90;;;;;;5092375;28;20388;-75
2021/12/24 14:21:53;;;;;;;31.73;25.65;;;8.40;99.90;;;;;;5091070;28;20024;-75
2021/12/24 14:24:33;;;;;;;31.98;25.95;;;8.40;99.90;;;;;;5073574;28;20024;-75
2021/12/24 14:27:02;;;;;;;32.50;27.25;;;8.40;99.90;;;;;;5091615;28;20441;-74
2021/12/24 14:29:27;;;;;;;;;;;8.40;99.90;;;;;;5072184;28;20024;-74
2021/12/24 14:32:11;;;;;;;33.10;26.55;;;8.40;99.90;;;;;;5072785;28;19919;-73
2021/12/24 14:34:55;;;;;;;31.80;27.67;;;8.40;99.90;;;;;;5073343;28;20395;-73
2021/12/24 14:37:39;;;;;;;34.33;30.00;;;8.40;99.90;;;;;;5071070;28;20450;-75
2021/12/24 14:40:27;;;;;;;32.13;28.33;;;8.30;99.90;;;;;;5076966;28;20464;-75
2021/12/24 14:42:54;;;;;;;29.92;26.67;;;8.30;99.90;;;;;;5076607;28;20123;-74
2021/12/24 14:45:26;;;;;;;33.05;27.27;;;8.30;99.90;;;;;;5077202;28;20088;-74
2021/12/24 14:48:08;;;;;;;33.50;29.90;;;8.30;99.90;;;;;;5077390;28;20024;-73
2021/12/24 14:51:03;;;;;;;34.80;31.02;;;8.30;99.90;;;;;;5077508;28;20084;-71
2021/12/24 14:53:32;;;;;;;33.90;30.40;;;8.30;99.90;;;;;;5094979;28;20048;-73
2021/12/24 14:56:10;;;;;;;34.88;31.15;;;8.20;99.90;;;;;;5095265;28;20047;-73
2021/12/24 14:58:48;;;;;;;35.10;31.40;;;8.20;99.90;;;;;;5077366;28;20024;-73
2021/12/24 15:01:18;;;;;;;35.53;29.90;;;8.20;99.90;;;;;;5077287;28;20032;-74
2021/12/24 15:03:47;;;;;;;34.53;31.08;;;8.20;99.90;;;;;;5079136;28;20487;-73